sensor_id;sensor_type;location;lat;lon;timestamp;temperature;humidity
65044;DHT22;51617;48.158;16.464;2022-12-18T00:00:47;22.60;76.10
65044;DHT22;51617;48.158;16.464;2022-12-18T00:03:14;22.50;76.10
65044;DHT22;51617;48.158;16.464;2022-12-18T00:05:50;22.50;76.00
65044;DHT22;51617;48.158;16.464;2022-12-18T00:08:16;22.60;76.00
65044;DHT22;51617;48.158;16.464;2022-12-18T00:10:43;22.60;76.10
65044;DHT22;51617;48.158;16.464;2022-12-18T00:13:09;22.60;75.90
65044;DHT22;51617;48.158;16.464;2022-12-18T00:15:36;22.60;75.90
65044;DHT22;51617;48.158;16.464;2022-12-18T00:18:02;22.50;76.80
65044;DHT22;51617;48.158;16.464;2022-12-18T00:20:28;22.50;76.00
65044;DHT22;51617;48.158;16.464;2022-12-18T00:22:54;22.50;76.20
65044;DHT22;51617;48.158;16.464;2022-12-18T00:25:20;22.50;76.00
65044;DHT22;51617;48.158;16.464;2022-12-18T00:27:46;22.50;76.00
65044;DHT22;51617;48.158;16.464;2022-12-18T00:30:12;22.40;76.10
65044;DHT22;51617;48.158;16.464;2022-12-18T00:32:37;22.50;76.30
65044;DHT22;51617;48.158;16.464;2022-12-18T00:35:04;22.50;75.90
65044;DHT22;51617;48.158;16.464;2022-12-18T00:37:30;22.40;76.00
65044;DHT22;51617;48.158;16.464;2022-12-18T00:39:55;22.50;76.00
65044;DHT22;51617;48.158;16.464;2022-12-18T00:42:21;22.50;76.00
65044;DHT22;51617;48.158;16.464;2022-12-18T00:45:05;22.50;75.90
65044;DHT22;51617;48.158;16.464;2022-12-18T00:47:31;22.50;75.80
65044;DHT22;51617;48.158;16.464;2022-12-18T00:49:57;22.40;75.90
65044;DHT22;51617;48.158;16.464;2022-12-18T00:52:22;22.40;76.00
65044;DHT22;51617;48.158;16.464;2022-12-18T00:54:48;22.40;76.10
65044;DHT22;51617;48.158;16.464;2022-12-18T00:57:14;22.40;76.00
65044;DHT22;51617;48.158;16.464;2022-12-18T00:59:39;22.30;75.90
65044;DHT22;51617;48.158;16.464;2022-12-18T01:02:05;22.30;76.00
65044;DHT22;51617;48.158;16.464;2022-12-18T01:04:34;22.30;75.90
65044;DHT22;51617;48.158;16.464;2022-12-18T01:07:00;22.30;75.90
65044;DHT22;51617;48.158;16.464;2022-12-18T01:09:25;22.30;76.20
65044;DHT22;51617;48.158;16.464;2022-12-18T01:11:51;22.20;75.90
65044;DHT22;51617;48.158;16.464;2022-12-18T01:14:17;22.20;76.00
65044;DHT22;51617;48.158;16.464;2022-12-18T01:16:43;22.20;75.90
65044;DHT22;51617;48.158;16.464;2022-12-18T01:19:08;22.20;76.00
65044;DHT22;51617;48.158;16.464;2022-12-18T01:21:34;22.20;75.80
65044;DHT22;51617;48.158;16.464;2022-12-18T01:24:00;22.30;75.60
65044;DHT22;51617;48.158;16.464;2022-12-18T01:26:26;22.30;75.50
65044;DHT22;51617;48.158;16.464;2022-12-18T01:28:55;22.30;75.80
65044;DHT22;51617;48.158;16.464;2022-12-18T01:31:28;22.20;75.80
65044;DHT22;51617;48.158;16.464;2022-12-18T01:33:54;22.20;75.60
65044;DHT22;51617;48.158;16.464;2022-12-18T01:36:23;22.30;75.60
65044;DHT22;51617;48.158;16.464;2022-12-18T01:38:50;22.20;75.50
65044;DHT22;51617;48.158;16.464;2022-12-18T01:41:18;22.20;75.60
65044;DHT22;51617;48.158;16.464;2022-12-18T01:46:19;22.20;75.50
65044;DHT22;51617;48.158;16.464;2022-12-18T01:48:49;22.20;75.40
65044;DHT22;51617;48.158;16.464;2022-12-18T01:51:16;22.20;75.50
65044;DHT22;51617;48.158;16.464;2022-12-18T01:53:43;22.20;75.30
65044;DHT22;51617;48.158;16.464;2022-12-18T01:56:16;22.10;75.50
65044;DHT22;51617;48.158;16.464;2022-12-18T01:58:50;22.10;75.60
65044;DHT22;51617;48.158;16.464;2022-12-18T02:01:18;22.00;75.50
65044;DHT22;51617;48.158;16.464;2022-12-18T02:03:45;22.10;75.60
65044;DHT22;51617;48.158;16.464;2022-12-18T02:09:16;22.10;75.60
65044;DHT22;51617;48.158;16.464;2022-12-18T02:12:21;22.10;75.30
65044;DHT22;51617;48.158;16.464;2022-12-18T02:15:07;22.10;75.40
65044;DHT22;51617;48.158;16.464;2022-12-18T02:17:40;22.00;75.20
65044;DHT22;51617;48.158;16.464;2022-12-18T02:20:28;22.10;75.30
65044;DHT22;51617;48.158;16.464;2022-12-18T02:28:08;22.00;75.50
65044;DHT22;51617;48.158;16.464;2022-12-18T02:30:37;21.90;75.50
65044;DHT22;51617;48.158;16.464;2022-12-18T02:33:06;22.00;75.60
65044;DHT22;51617;48.158;16.464;2022-12-18T02:35:33;22.00;75.40
65044;DHT22;51617;48.158;16.464;2022-12-18T02:38:00;22.00;75.40
65044;DHT22;51617;48.158;16.464;2022-12-18T02:40:27;22.00;75.20
65044;DHT22;51617;48.158;16.464;2022-12-18T02:42:54;21.90;75.30
65044;DHT22;51617;48.158;16.464;2022-12-18T02:45:20;22.00;75.30
65044;DHT22;51617;48.158;16.464;2022-12-18T02:47:48;22.00;75.10
65044;DHT22;51617;48.158;16.464;2022-12-18T02:53:09;21.90;75.40
65044;DHT22;51617;48.158;16.464;2022-12-18T03:01:24;21.90;75.10
65044;DHT22;51617;48.158;16.464;2022-12-18T03:03:56;22.00;75.00
65044;DHT22;51617;48.158;16.464;2022-12-18T03:06:37;22.00;74.70
65044;DHT22;51617;48.158;16.464;2022-12-18T03:09:09;22.00;74.90
65044;DHT22;51617;48.158;16.464;2022-12-18T03:11:40;22.00;74.80
65044;DHT22;51617;48.158;16.464;2022-12-18T03:14:26;21.90;74.80
65044;DHT22;51617;48.158;16.464;2022-12-18T03:16:59;21.90;74.80
65044;DHT22;51617;48.158;16.464;2022-12-18T03:19:28;21.90;74.80
65044;DHT22;51617;48.158;16.464;2022-12-18T03:21:56;21.90;74.80
65044;DHT22;51617;48.158;16.464;2022-12-18T03:24:24;21.90;74.70
65044;DHT22;51617;48.158;16.464;2022-12-18T03:26:54;21.90;74.70
65044;DHT22;51617;48.158;16.464;2022-12-18T03:30:08;21.90;74.60
65044;DHT22;51617;48.158;16.464;2022-12-18T03:32:30;22.00;74.60
65044;DHT22;51617;48.158;16.464;2022-12-18T03:35:01;22.00;74.40
65044;DHT22;51617;48.158;16.464;2022-12-18T03:37:27;21.90;74.40
65044;DHT22;51617;48.158;16.464;2022-12-18T03:39:56;21.90;74.70
65044;DHT22;51617;48.158;16.464;2022-12-18T03:47:29;22.00;74.10
65044;DHT22;51617;48.158;16.464;2022-12-18T03:55:27;21.80;74.30
65044;DHT22;51617;48.158;16.464;2022-12-18T03:57:55;22.00;74.20
65044;DHT22;51617;48.158;16.464;2022-12-18T04:00:20;21.80;74.30
65044;DHT22;51617;48.158;16.464;2022-12-18T04:02:51;21.90;74.30
65044;DHT22;51617;48.158;16.464;2022-12-18T04:05:19;21.80;74.30
65044;DHT22;51617;48.158;16.464;2022-12-18T04:07:47;21.90;74.40
65044;DHT22;51617;48.158;16.464;2022-12-18T04:10:15;21.90;74.20
65044;DHT22;51617;48.158;16.464;2022-12-18T04:12:41;22.00;73.90
65044;DHT22;51617;48.158;16.464;2022-12-18T04:15:08;22.00;74.00
65044;DHT22;51617;48.158;16.464;2022-12-18T04:17:33;21.80;74.20
65044;DHT22;51617;48.158;16.464;2022-12-18T04:19:59;21.80;74.10
65044;DHT22;51617;48.158;16.464;2022-12-18T04:22:25;21.90;73.90
65044;DHT22;51617;48.158;16.464;2022-12-18T04:24:50;22.00;73.70
65044;DHT22;51617;48.158;16.464;2022-12-18T04:27:16;21.90;73.90
65044;DHT22;51617;48.158;16.464;2022-12-18T04:29:42;21.90;73.80
65044;DHT22;51617;48.158;16.464;2022-12-18T04:32:08;21.90;73.90
65044;DHT22;51617;48.158;16.464;2022-12-18T04:34:33;21.90;73.90
65044;DHT22;51617;48.158;16.464;2022-12-18T04:36:59;21.90;73.70
65044;DHT22;51617;48.158;16.464;2022-12-18T04:39:25;22.00;73.60
65044;DHT22;51617;48.158;16.464;2022-12-18T04:41:50;22.00;73.70
65044;DHT22;51617;48.158;16.464;2022-12-18T04:44:16;22.00;73.40
65044;DHT22;51617;48.158;16.464;2022-12-18T04:46:41;21.90;73.60
65044;DHT22;51617;48.158;16.464;2022-12-18T04:49:07;21.90;73.60
65044;DHT22;51617;48.158;16.464;2022-12-18T04:51:33;21.90;73.40
65044;DHT22;51617;48.158;16.464;2022-12-18T04:53:58;22.00;73.40
65044;DHT22;51617;48.158;16.464;2022-12-18T04:56:24;22.00;73.30
65044;DHT22;51617;48.158;16.464;2022-12-18T04:58:50;22.00;73.20
65044;DHT22;51617;48.158;16.464;2022-12-18T05:01:17;21.80;73.40
65044;DHT22;51617;48.158;16.464;2022-12-18T05:03:43;21.80;73.60
65044;DHT22;51617;48.158;16.464;2022-12-18T05:06:09;22.00;73.30
65044;DHT22;51617;48.158;16.464;2022-12-18T05:08:34;22.00;73.30
65044;DHT22;51617;48.158;16.464;2022-12-18T05:11:08;21.90;73.30
65044;DHT22;51617;48.158;16.464;2022-12-18T05:13:35;21.90;73.20
65044;DHT22;51617;48.158;16.464;2022-12-18T05:16:02;22.00;73.20
65044;DHT22;51617;48.158;16.464;2022-12-18T05:18:28;22.00;73.30
65044;DHT22;51617;48.158;16.464;2022-12-18T05:20:54;21.90;73.40
65044;DHT22;51617;48.158;16.464;2022-12-18T05:23:21;21.90;73.20
65044;DHT22;51617;48.158;16.464;2022-12-18T05:25:54;21.80;73.30
65044;DHT22;51617;48.158;16.464;2022-12-18T05:28:21;21.90;73.20
65044;DHT22;51617;48.158;16.464;2022-12-18T05:30:54;21.90;73.20
65044;DHT22;51617;48.158;16.464;2022-12-18T05:33:21;21.80;73.30
65044;DHT22;51617;48.158;16.464;2022-12-18T05:35:51;21.80;73.40
65044;DHT22;51617;48.158;16.464;2022-12-18T05:38:18;21.80;73.30
65044;DHT22;51617;48.158;16.464;2022-12-18T05:40:43;21.70;73.50
65044;DHT22;51617;48.158;16.464;2022-12-18T05:43:10;21.80;73.60
65044;DHT22;51617;48.158;16.464;2022-12-18T05:45:39;22.00;73.40
65044;DHT22;51617;48.158;16.464;2022-12-18T05:48:05;21.90;73.30
65044;DHT22;51617;48.158;16.464;2022-12-18T05:50:34;22.10;73.30
65044;DHT22;51617;48.158;16.464;2022-12-18T05:53:01;22.00;73.30
65044;DHT22;51617;48.158;16.464;2022-12-18T05:55:27;22.00;73.50
65044;DHT22;51617;48.158;16.464;2022-12-18T05:57:52;22.00;73.30
65044;DHT22;51617;48.158;16.464;2022-12-18T06:00:18;22.10;73.40
65044;DHT22;51617;48.158;16.464;2022-12-18T06:02:47;22.30;73.20
65044;DHT22;51617;48.158;16.464;2022-12-18T06:05:12;22.40;73.00
65044;DHT22;51617;48.158;16.464;2022-12-18T06:07:38;22.50;73.00
65044;DHT22;51617;48.158;16.464;2022-12-18T06:10:04;22.50;72.80
65044;DHT22;51617;48.158;16.464;2022-12-18T06:12:30;22.60;72.60
65044;DHT22;51617;48.158;16.464;2022-12-18T06:14:55;22.70;72.50
65044;DHT22;51617;48.158;16.464;2022-12-18T06:17:21;22.80;72.40
65044;DHT22;51617;48.158;16.464;2022-12-18T06:19:47;22.80;72.30
65044;DHT22;51617;48.158;16.464;2022-12-18T06:22:12;23.00;72.10
65044;DHT22;51617;48.158;16.464;2022-12-18T06:24:38;22.90;72.00
65044;DHT22;51617;48.158;16.464;2022-12-18T06:27:03;23.00;72.00
65044;DHT22;51617;48.158;16.464;2022-12-18T06:29:29;23.00;71.90
65044;DHT22;51617;48.158;16.464;2022-12-18T06:31:55;23.00;72.00
65044;DHT22;51617;48.158;16.464;2022-12-18T06:34:20;23.00;71.90
65044;DHT22;51617;48.158;16.464;2022-12-18T06:36:46;23.10;71.80
65044;DHT22;51617;48.158;16.464;2022-12-18T06:39:11;23.10;71.80
65044;DHT22;51617;48.158;16.464;2022-12-18T06:41:37;23.10;71.60
65044;DHT22;51617;48.158;16.464;2022-12-18T06:44:03;23.10;71.60
65044;DHT22;51617;48.158;16.464;2022-12-18T06:46:29;23.10;71.60
65044;DHT22;51617;48.158;16.464;2022-12-18T06:48:54;23.10;71.50
65044;DHT22;51617;48.158;16.464;2022-12-18T06:51:21;23.10;71.60
65044;DHT22;51617;48.158;16.464;2022-12-18T06:53:47;23.20;71.50
65044;DHT22;51617;48.158;16.464;2022-12-18T06:56:13;23.30;71.40
65044;DHT22;51617;48.158;16.464;2022-12-18T06:58:39;23.30;71.40
65044;DHT22;51617;48.158;16.464;2022-12-18T07:01:07;23.20;71.30
65044;DHT22;51617;48.158;16.464;2022-12-18T07:03:33;23.20;72.10
65044;DHT22;51617;48.158;16.464;2022-12-18T07:05:58;23.20;71.30
65044;DHT22;51617;48.158;16.464;2022-12-18T07:08:24;23.20;71.30
65044;DHT22;51617;48.158;16.464;2022-12-18T07:10:49;23.20;71.30
65044;DHT22;51617;48.158;16.464;2022-12-18T07:13:16;23.20;71.30
65044;DHT22;51617;48.158;16.464;2022-12-18T07:15:43;23.30;71.30
65044;DHT22;51617;48.158;16.464;2022-12-18T07:18:09;23.30;71.30
65044;DHT22;51617;48.158;16.464;2022-12-18T07:20:34;23.30;71.30
65044;DHT22;51617;48.158;16.464;2022-12-18T07:23:02;23.50;71.20
65044;DHT22;51617;48.158;16.464;2022-12-18T07:25:28;23.50;71.40
65044;DHT22;51617;48.158;16.464;2022-12-18T07:27:54;23.60;71.50
65044;DHT22;51617;48.158;16.464;2022-12-18T07:30:20;23.70;71.20
65044;DHT22;51617;48.158;16.464;2022-12-18T07:32:45;23.80;71.20
65044;DHT22;51617;48.158;16.464;2022-12-18T07:35:11;23.70;71.00
65044;DHT22;51617;48.158;16.464;2022-12-18T07:37:36;23.70;71.10
65044;DHT22;51617;48.158;16.464;2022-12-18T07:40:02;23.80;71.30
65044;DHT22;51617;48.158;16.464;2022-12-18T07:42:28;23.90;71.30
65044;DHT22;51617;48.158;16.464;2022-12-18T07:44:57;24.00;71.30
65044;DHT22;51617;48.158;16.464;2022-12-18T07:47:23;23.90;71.70
65044;DHT22;51617;48.158;16.464;2022-12-18T07:49:49;23.90;71.70
65044;DHT22;51617;48.158;16.464;2022-12-18T07:52:14;24.00;71.60
65044;DHT22;51617;48.158;16.464;2022-12-18T07:54:40;24.00;71.60
65044;DHT22;51617;48.158;16.464;2022-12-18T07:57:07;24.10;71.50
65044;DHT22;51617;48.158;16.464;2022-12-18T07:59:33;24.00;71.60
65044;DHT22;51617;48.158;16.464;2022-12-18T08:01:58;24.00;71.60
65044;DHT22;51617;48.158;16.464;2022-12-18T08:04:24;24.10;71.80
65044;DHT22;51617;48.158;16.464;2022-12-18T08:06:50;24.20;71.90
65044;DHT22;51617;48.158;16.464;2022-12-18T08:09:16;24.20;71.70
65044;DHT22;51617;48.158;16.464;2022-12-18T08:11:42;24.20;71.40
65044;DHT22;51617;48.158;16.464;2022-12-18T08:14:08;24.20;70.90
65044;DHT22;51617;48.158;16.464;2022-12-18T08:16:33;24.20;70.20
65044;DHT22;51617;48.158;16.464;2022-12-18T08:18:59;24.20;70.50
65044;DHT22;51617;48.158;16.464;2022-12-18T08:21:27;24.10;69.00
65044;DHT22;51617;48.158;16.464;2022-12-18T08:23:54;24.10;69.60
65044;DHT22;51617;48.158;16.464;2022-12-18T08:26:21;24.20;69.70
65044;DHT22;51617;48.158;16.464;2022-12-18T08:28:47;24.30;70.10
65044;DHT22;51617;48.158;16.464;2022-12-18T08:31:13;24.30;70.10
65044;DHT22;51617;48.158;16.464;2022-12-18T08:33:40;24.30;70.30
65044;DHT22;51617;48.158;16.464;2022-12-18T08:36:06;24.30;70.50
65044;DHT22;51617;48.158;16.464;2022-12-18T08:38:33;24.30;71.00
65044;DHT22;51617;48.158;16.464;2022-12-18T08:41:03;24.10;71.10
65044;DHT22;51617;48.158;16.464;2022-12-18T08:48:51;24.80;73.40
65044;DHT22;51617;48.158;16.464;2022-12-18T08:51:17;25.00;72.60
65044;DHT22;51617;48.158;16.464;2022-12-18T08:53:43;25.10;72.00
65044;DHT22;51617;48.158;16.464;2022-12-18T08:56:10;25.20;70.40
65044;DHT22;51617;48.158;16.464;2022-12-18T08:58:36;25.40;69.00
65044;DHT22;51617;48.158;16.464;2022-12-18T09:01:03;25.40;68.40
65044;DHT22;51617;48.158;16.464;2022-12-18T09:03:29;25.40;68.10
65044;DHT22;51617;48.158;16.464;2022-12-18T09:05:55;25.40;68.00
65044;DHT22;51617;48.158;16.464;2022-12-18T09:08:20;25.40;68.00
65044;DHT22;51617;48.158;16.464;2022-12-18T09:10:47;25.40;68.30
65044;DHT22;51617;48.158;16.464;2022-12-18T09:13:14;25.40;68.90
65044;DHT22;51617;48.158;16.464;2022-12-18T09:15:49;25.40;68.80
65044;DHT22;51617;48.158;16.464;2022-12-18T09:18:16;25.40;68.80
65044;DHT22;51617;48.158;16.464;2022-12-18T09:20:42;25.50;68.90
65044;DHT22;51617;48.158;16.464;2022-12-18T09:23:09;25.50;68.90
65044;DHT22;51617;48.158;16.464;2022-12-18T09:25:35;25.50;69.40
65044;DHT22;51617;48.158;16.464;2022-12-18T09:28:15;25.50;68.80
65044;DHT22;51617;48.158;16.464;2022-12-18T09:30:49;25.50;68.70
65044;DHT22;51617;48.158;16.464;2022-12-18T09:33:15;25.50;68.80
65044;DHT22;51617;48.158;16.464;2022-12-18T09:35:43;25.50;68.80
65044;DHT22;51617;48.158;16.464;2022-12-18T09:38:16;25.50;68.60
65044;DHT22;51617;48.158;16.464;2022-12-18T09:40:44;25.50;68.70
65044;DHT22;51617;48.158;16.464;2022-12-18T09:43:26;25.50;68.60
65044;DHT22;51617;48.158;16.464;2022-12-18T09:45:59;25.50;68.50
65044;DHT22;51617;48.158;16.464;2022-12-18T09:48:30;25.50;68.70
65044;DHT22;51617;48.158;16.464;2022-12-18T09:51:00;25.60;68.80
65044;DHT22;51617;48.158;16.464;2022-12-18T09:53:31;25.50;69.00
65044;DHT22;51617;48.158;16.464;2022-12-18T09:56:00;25.60;69.10
65044;DHT22;51617;48.158;16.464;2022-12-18T09:58:40;25.60;69.10
65044;DHT22;51617;48.158;16.464;2022-12-18T10:01:12;25.60;69.40
65044;DHT22;51617;48.158;16.464;2022-12-18T10:03:39;25.60;69.90
65044;DHT22;51617;48.158;16.464;2022-12-18T10:09:27;25.70;70.20
65044;DHT22;51617;48.158;16.464;2022-12-18T10:12:21;25.70;70.80
65044;DHT22;51617;48.158;16.464;2022-12-18T10:17:45;25.70;70.40
65044;DHT22;51617;48.158;16.464;2022-12-18T10:20:24;25.70;69.70
65044;DHT22;51617;48.158;16.464;2022-12-18T10:22:58;25.60;69.50
65044;DHT22;51617;48.158;16.464;2022-12-18T10:26:03;25.70;69.30
65044;DHT22;51617;48.158;16.464;2022-12-18T10:28:21;25.70;69.20
65044;DHT22;51617;48.158;16.464;2022-12-18T10:30:48;25.70;68.90
65044;DHT22;51617;48.158;16.464;2022-12-18T10:33:17;25.60;68.70
65044;DHT22;51617;48.158;16.464;2022-12-18T10:35:44;25.70;68.70
65044;DHT22;51617;48.158;16.464;2022-12-18T10:41:05;25.70;68.70
65044;DHT22;51617;48.158;16.464;2022-12-18T10:43:38;25.60;68.70
65044;DHT22;51617;48.158;16.464;2022-12-18T10:51:22;25.60;68.40
65044;DHT22;51617;48.158;16.464;2022-12-18T10:53:56;25.60;68.80
65044;DHT22;51617;48.158;16.464;2022-12-18T10:56:24;25.60;68.90
65044;DHT22;51617;48.158;16.464;2022-12-18T10:59:08;25.60;69.10
65044;DHT22;51617;48.158;16.464;2022-12-18T11:01:55;25.60;69.00
65044;DHT22;51617;48.158;16.464;2022-12-18T11:04:29;25.60;68.60
65044;DHT22;51617;48.158;16.464;2022-12-18T11:09:28;25.60;68.70
65044;DHT22;51617;48.158;16.464;2022-12-18T11:12:00;25.60;69.00
65044;DHT22;51617;48.158;16.464;2022-12-18T11:14:34;25.60;69.10
65044;DHT22;51617;48.158;16.464;2022-12-18T11:20:00;25.60;69.40
65044;DHT22;51617;48.158;16.464;2022-12-18T11:22:31;25.60;69.50
65044;DHT22;51617;48.158;16.464;2022-12-18T11:25:02;25.60;69.70
65044;DHT22;51617;48.158;16.464;2022-12-18T11:27:28;25.60;69.90
65044;DHT22;51617;48.158;16.464;2022-12-18T11:30:20;25.60;70.00
65044;DHT22;51617;48.158;16.464;2022-12-18T11:40:47;25.60;71.10
65044;DHT22;51617;48.158;16.464;2022-12-18T11:43:27;25.60;70.90
65044;DHT22;51617;48.158;16.464;2022-12-18T11:46:02;25.50;70.80
65044;DHT22;51617;48.158;16.464;2022-12-18T11:48:52;25.60;70.30
65044;DHT22;51617;48.158;16.464;2022-12-18T11:51:37;25.50;69.70
65044;DHT22;51617;48.158;16.464;2022-12-18T11:54:21;25.50;69.00
65044;DHT22;51617;48.158;16.464;2022-12-18T11:57:09;25.50;68.30
65044;DHT22;51617;48.158;16.464;2022-12-18T12:00:12;25.50;67.90
65044;DHT22;51617;48.158;16.464;2022-12-18T12:05:45;25.50;67.10
65044;DHT22;51617;48.158;16.464;2022-12-18T12:08:39;25.40;67.00
65044;DHT22;51617;48.158;16.464;2022-12-18T12:21:40;25.50;67.60
65044;DHT22;51617;48.158;16.464;2022-12-18T12:35:38;25.50;65.80
65044;DHT22;51617;48.158;16.464;2022-12-18T12:40:56;25.40;66.00
65044;DHT22;51617;48.158;16.464;2022-12-18T12:46:09;25.40;66.60
65044;DHT22;51617;48.158;16.464;2022-12-18T12:48:40;25.40;66.70
65044;DHT22;51617;48.158;16.464;2022-12-18T12:51:16;25.50;67.00
65044;DHT22;51617;48.158;16.464;2022-12-18T12:53:43;25.50;67.00
65044;DHT22;51617;48.158;16.464;2022-12-18T12:56:11;25.50;67.00
65044;DHT22;51617;48.158;16.464;2022-12-18T13:04:27;25.40;67.00
65044;DHT22;51617;48.158;16.464;2022-12-18T13:09:33;25.40;67.10
65044;DHT22;51617;48.158;16.464;2022-12-18T13:12:08;25.30;67.10
65044;DHT22;51617;48.158;16.464;2022-12-18T13:14:52;25.30;67.10
65044;DHT22;51617;48.158;16.464;2022-12-18T13:19:51;25.30;66.90
65044;DHT22;51617;48.158;16.464;2022-12-18T13:22:22;25.30;67.00
65044;DHT22;51617;48.158;16.464;2022-12-18T13:24:49;25.30;66.80
65044;DHT22;51617;48.158;16.464;2022-12-18T13:41:01;25.40;66.90
65044;DHT22;51617;48.158;16.464;2022-12-18T13:43:51;25.40;67.60
65044;DHT22;51617;48.158;16.464;2022-12-18T13:51:22;25.50;68.50
65044;DHT22;51617;48.158;16.464;2022-12-18T13:56:48;25.70;70.50
65044;DHT22;51617;48.158;16.464;2022-12-18T13:59:25;25.70;69.80
65044;DHT22;51617;48.158;16.464;2022-12-18T14:02:00;25.70;71.10
65044;DHT22;51617;48.158;16.464;2022-12-18T14:04:30;25.80;71.20
65044;DHT22;51617;48.158;16.464;2022-12-18T14:09:29;25.80;70.90
65044;DHT22;51617;48.158;16.464;2022-12-18T14:11:56;25.80;70.50
65044;DHT22;51617;48.158;16.464;2022-12-18T14:14:43;25.80;69.80
65044;DHT22;51617;48.158;16.464;2022-12-18T14:17:12;25.80;68.80
65044;DHT22;51617;48.158;16.464;2022-12-18T14:19:47;25.80;68.80
65044;DHT22;51617;48.158;16.464;2022-12-18T14:22:16;25.80;69.70
65044;DHT22;51617;48.158;16.464;2022-12-18T14:24:42;25.80;69.70
65044;DHT22;51617;48.158;16.464;2022-12-18T14:27:24;25.80;69.50
65044;DHT22;51617;48.158;16.464;2022-12-18T14:29:50;25.80;69.70
65044;DHT22;51617;48.158;16.464;2022-12-18T14:32:18;25.80;69.60
65044;DHT22;51617;48.158;16.464;2022-12-18T14:34:50;25.80;70.00
65044;DHT22;51617;48.158;16.464;2022-12-18T14:37:20;25.90;70.10
65044;DHT22;51617;48.158;16.464;2022-12-18T14:40:12;25.90;70.20
65044;DHT22;51617;48.158;16.464;2022-12-18T14:42:38;25.80;70.70
65044;DHT22;51617;48.158;16.464;2022-12-18T14:45:33;25.90;70.30
65044;DHT22;51617;48.158;16.464;2022-12-18T14:47:59;25.90;70.50
65044;DHT22;51617;48.158;16.464;2022-12-18T14:50:25;25.90;70.60
65044;DHT22;51617;48.158;16.464;2022-12-18T14:52:52;25.90;70.70
65044;DHT22;51617;48.158;16.464;2022-12-18T14:55:19;25.90;71.10
65044;DHT22;51617;48.158;16.464;2022-12-18T14:57:46;26.00;71.40
65044;DHT22;51617;48.158;16.464;2022-12-18T15:00:20;26.00;71.30
65044;DHT22;51617;48.158;16.464;2022-12-18T15:02:57;26.00;71.50
65044;DHT22;51617;48.158;16.464;2022-12-18T15:05:28;26.00;71.70
65044;DHT22;51617;48.158;16.464;2022-12-18T15:07:57;26.00;71.80
65044;DHT22;51617;48.158;16.464;2022-12-18T15:10:30;26.00;71.80
65044;DHT22;51617;48.158;16.464;2022-12-18T15:20:46;26.00;71.70
65044;DHT22;51617;48.158;16.464;2022-12-18T15:25:55;26.00;71.20
65044;DHT22;51617;48.158;16.464;2022-12-18T15:36:16;25.90;69.50
65044;DHT22;51617;48.158;16.464;2022-12-18T15:38:49;25.90;69.80
65044;DHT22;51617;48.158;16.464;2022-12-18T15:41:18;25.90;70.00
65044;DHT22;51617;48.158;16.464;2022-12-18T15:43:49;25.90;70.10
65044;DHT22;51617;48.158;16.464;2022-12-18T15:46:23;25.90;70.70
65044;DHT22;51617;48.158;16.464;2022-12-18T15:48:51;25.90;71.30
65044;DHT22;51617;48.158;16.464;2022-12-18T15:51:18;25.90;71.20
65044;DHT22;51617;48.158;16.464;2022-12-18T15:53:47;26.00;71.00
65044;DHT22;51617;48.158;16.464;2022-12-18T15:56:15;26.00;70.80
65044;DHT22;51617;48.158;16.464;2022-12-18T15:59:00;26.00;70.80
65044;DHT22;51617;48.158;16.464;2022-12-18T16:01:29;25.90;70.60
65044;DHT22;51617;48.158;16.464;2022-12-18T16:03:55;25.90;70.40
65044;DHT22;51617;48.158;16.464;2022-12-18T16:06:22;25.90;70.20
65044;DHT22;51617;48.158;16.464;2022-12-18T16:08:48;25.90;70.20
65044;DHT22;51617;48.158;16.464;2022-12-18T16:11:35;25.90;70.40
65044;DHT22;51617;48.158;16.464;2022-12-18T16:14:23;25.80;71.00
65044;DHT22;51617;48.158;16.464;2022-12-18T16:17:00;25.90;71.90
65044;DHT22;51617;48.158;16.464;2022-12-18T16:19:27;25.90;72.20
65044;DHT22;51617;48.158;16.464;2022-12-18T16:21:55;25.90;72.70
65044;DHT22;51617;48.158;16.464;2022-12-18T16:24:27;26.00;72.90
65044;DHT22;51617;48.158;16.464;2022-12-18T16:26:56;26.00;73.20
65044;DHT22;51617;48.158;16.464;2022-12-18T16:29:24;26.00;73.60
65044;DHT22;51617;48.158;16.464;2022-12-18T16:31:57;26.00;73.60
65044;DHT22;51617;48.158;16.464;2022-12-18T16:34:34;26.00;73.70
65044;DHT22;51617;48.158;16.464;2022-12-18T16:37:05;26.00;74.10
65044;DHT22;51617;48.158;16.464;2022-12-18T16:39:32;26.00;74.10
65044;DHT22;51617;48.158;16.464;2022-12-18T16:42:00;26.00;74.20
65044;DHT22;51617;48.158;16.464;2022-12-18T16:44:26;26.00;74.00
65044;DHT22;51617;48.158;16.464;2022-12-18T16:46:52;26.10;74.10
65044;DHT22;51617;48.158;16.464;2022-12-18T16:49:18;26.10;74.80
65044;DHT22;51617;48.158;16.464;2022-12-18T16:51:48;26.10;74.40
65044;DHT22;51617;48.158;16.464;2022-12-18T16:54:14;26.10;74.50
65044;DHT22;51617;48.158;16.464;2022-12-18T16:56:40;26.10;74.30
65044;DHT22;51617;48.158;16.464;2022-12-18T16:59:09;26.10;74.80
65044;DHT22;51617;48.158;16.464;2022-12-18T17:01:36;26.20;75.50
65044;DHT22;51617;48.158;16.464;2022-12-18T17:04:03;26.20;75.40
65044;DHT22;51617;48.158;16.464;2022-12-18T17:06:33;26.20;74.70
65044;DHT22;51617;48.158;16.464;2022-12-18T17:09:01;26.20;74.30
65044;DHT22;51617;48.158;16.464;2022-12-18T17:11:30;26.20;73.90
65044;DHT22;51617;48.158;16.464;2022-12-18T17:13:57;26.20;73.60
65044;DHT22;51617;48.158;16.464;2022-12-18T17:16:24;26.20;73.30
65044;DHT22;51617;48.158;16.464;2022-12-18T17:18:52;26.20;73.10
65044;DHT22;51617;48.158;16.464;2022-12-18T17:21:18;26.20;72.90
65044;DHT22;51617;48.158;16.464;2022-12-18T17:23:45;26.20;72.50
65044;DHT22;51617;48.158;16.464;2022-12-18T17:26:12;26.10;72.40
65044;DHT22;51617;48.158;16.464;2022-12-18T17:28:39;26.20;72.50
65044;DHT22;51617;48.158;16.464;2022-12-18T17:31:12;26.20;72.60
65044;DHT22;51617;48.158;16.464;2022-12-18T17:33:38;26.20;72.60
65044;DHT22;51617;48.158;16.464;2022-12-18T17:36:05;26.20;72.50
65044;DHT22;51617;48.158;16.464;2022-12-18T17:38:32;26.20;73.10
65044;DHT22;51617;48.158;16.464;2022-12-18T17:41:05;26.20;73.30
65044;DHT22;51617;48.158;16.464;2022-12-18T17:43:32;26.20;73.20
65044;DHT22;51617;48.158;16.464;2022-12-18T17:46:04;26.20;73.20
65044;DHT22;51617;48.158;16.464;2022-12-18T17:48:31;26.20;73.20
65044;DHT22;51617;48.158;16.464;2022-12-18T17:51:01;26.20;73.50
65044;DHT22;51617;48.158;16.464;2022-12-18T17:53:28;26.20;73.50
65044;DHT22;51617;48.158;16.464;2022-12-18T17:55:58;26.20;73.40